createdAt,value
2023-05-30T03:10:41.710Z,48.59
2023-05-30T03:13:28.814Z,48.24
2023-05-30T03:16:16.533Z,48.56
2023-05-30T03:19:03.625Z,48.37
2023-05-30T03:21:51.094Z,49.01
2023-05-30T03:24:38.883Z,49.60
2023-05-30T03:27:25.996Z,49.72
2023-05-30T03:30:14.126Z,49.34
2023-05-30T03:33:01.381Z,49.37
2023-05-30T03:35:48.570Z,49.26
2023-05-30T03:38:35.857Z,48.73
2023-05-30T03:41:23.110Z,49.15
2023-05-30T03:44:10.575Z,48.84
2023-05-30T03:46:58.487Z,49.02
2023-05-30T03:49:45.545Z,48.54
2023-05-30T03:52:32.446Z,48.68
2023-05-30T03:55:21.690Z,48.40
2023-05-30T03:58:08.578Z,47.57
2023-05-30T04:00:55.601Z,47.37
2023-05-30T04:03:46.298Z,47.72
2023-05-30T04:06:35.517Z,47.96
2023-05-30T04:09:22.452Z,47.14
2023-05-30T04:12:09.602Z,47.20
2023-05-30T04:14:56.641Z,47.44
2023-05-30T04:17:43.645Z,47.25
2023-05-30T04:20:30.626Z,46.67
2023-05-30T04:23:17.567Z,46.99
2023-05-30T04:26:05.554Z,47.36
2023-05-30T04:28:57.913Z,48.37
2023-05-30T04:31:45.152Z,48.21
2023-05-30T04:34:32.169Z,48.28
2023-05-30T04:37:19.374Z,48.37
2023-05-30T04:40:09.776Z,48.28
2023-05-30T04:42:57.788Z,48.43
2023-05-30T04:45:46.006Z,48.11
2023-05-30T04:48:33.476Z,49.33
2023-05-30T04:51:21.625Z,49.70
2023-05-30T04:54:08.763Z,49.73
2023-05-30T04:56:55.734Z,49.40
2023-05-30T04:59:42.634Z,49.41
2023-05-30T05:02:30.130Z,48.95
2023-05-30T05:05:16.975Z,48.53
2023-05-30T05:08:03.804Z,48.12
2023-05-30T05:10:50.833Z,48.64
2023-05-30T05:13:37.700Z,48.29
2023-05-30T05:16:24.655Z,48.44
2023-05-30T05:19:11.624Z,48.47
2023-05-30T05:21:58.503Z,47.36
2023-05-30T05:24:46.175Z,46.25
2023-05-30T05:27:34.287Z,48.13
2023-05-30T05:30:21.164Z,47.44
2023-05-30T05:33:08.679Z,46.87
2023-05-30T05:35:55.691Z,46.01
2023-05-30T05:38:42.532Z,45.29
2023-05-30T05:41:29.417Z,45.86
2023-05-30T05:44:16.259Z,46.60
2023-05-30T05:47:03.244Z,46.00
2023-05-30T05:49:50.062Z,46.31
2023-05-30T05:52:36.947Z,45.93
2023-05-30T05:55:23.839Z,46.33
2023-05-30T05:58:10.666Z,46.49
2023-05-30T06:00:57.661Z,45.01
2023-05-30T06:03:44.873Z,44.80
2023-05-30T06:06:31.806Z,45.25
2023-05-30T06:09:19.675Z,43.95
2023-05-30T06:12:07.972Z,46.00
2023-05-30T06:14:55.536Z,45.09
2023-05-30T06:17:42.499Z,45.25
2023-05-30T06:20:29.534Z,45.21
2023-05-30T06:22:56.260Z,45.22
2023-05-30T06:25:23.072Z,43.90
2023-05-30T06:27:49.626Z,44.50
2023-05-30T06:30:16.368Z,45.27
2023-05-30T06:32:44.000Z,45.34
2023-05-30T06:35:11.358Z,43.82
2023-05-30T06:37:38.268Z,44.30
2023-05-30T06:40:05.607Z,44.42
2023-05-30T06:42:34.354Z,44.79
2023-05-30T06:45:01.002Z,45.63
2023-05-30T06:47:27.716Z,44.34
2023-05-30T06:49:54.358Z,43.85
2023-05-30T06:52:21.100Z,43.41
2023-05-30T06:54:47.786Z,44.12
2023-05-30T06:57:14.425Z,43.60
2023-05-30T06:59:42.117Z,44.65
2023-05-30T07:02:08.748Z,43.12
2023-05-30T07:04:36.395Z,42.87
2023-05-30T07:07:03.116Z,42.66
2023-05-30T07:09:29.967Z,43.42
2023-05-30T07:11:56.631Z,43.64
2023-05-30T07:14:23.138Z,45.06
2023-05-30T07:16:49.740Z,43.98
2023-05-30T07:19:16.353Z,43.45
2023-05-30T07:21:42.894Z,43.52
2023-05-30T07:24:10.118Z,42.71
2023-05-30T07:26:36.858Z,43.81
2023-05-30T07:29:03.747Z,42.58
2023-05-30T07:31:30.457Z,42.25
2023-05-30T07:33:57.975Z,40.77
2023-05-30T07:36:24.822Z,40.41
2023-05-30T07:38:52.090Z,41.47
2023-05-30T07:41:18.653Z,40.99
2023-05-30T07:43:45.202Z,40.95
2023-05-30T07:46:11.834Z,40.78
2023-05-30T07:48:38.463Z,40.37
2023-05-30T07:51:05.401Z,40.78
2023-05-30T07:53:31.972Z,40.85
2023-05-30T07:55:59.584Z,39.80
2023-05-30T07:58:26.204Z,40.73
2023-05-30T08:00:52.729Z,40.23
2023-05-30T08:03:19.447Z,39.79
2023-05-30T08:05:47.929Z,41.02
2023-05-30T08:08:14.969Z,39.56
2023-05-30T08:10:41.565Z,40.13
2023-05-30T08:13:08.107Z,39.28
2023-05-30T08:15:35.010Z,40.38
2023-05-30T08:18:02.358Z,38.03
2023-05-30T08:20:30.637Z,38.61
2023-05-30T08:22:57.331Z,38.32
2023-05-30T08:25:34.239Z,37.37
2023-05-30T08:28:00.931Z,36.79
2023-05-30T08:30:27.558Z,37.38
2023-05-30T08:32:54.727Z,36.78
2023-05-30T08:35:21.414Z,36.88
2023-05-30T08:37:48.696Z,36.42
2023-05-30T08:40:15.839Z,37.15
2023-05-30T08:42:42.576Z,36.11
2023-05-30T08:45:09.542Z,35.20
2023-05-30T08:47:36.807Z,37.69
2023-05-30T08:50:05.276Z,38.79
2023-05-30T08:52:33.086Z,37.70
2023-05-30T08:55:11.591Z,36.42
2023-05-30T08:57:44.839Z,38.08
2023-05-30T09:00:15.068Z,36.54
2023-05-30T09:02:52.240Z,36.77
2023-05-30T09:05:19.067Z,36.52
2023-05-30T09:07:49.073Z,37.68
2023-05-30T09:10:16.427Z,36.98
2023-05-30T09:12:43.350Z,35.47
2023-05-30T09:15:10.217Z,37.40
2023-05-30T09:17:37.451Z,36.72
2023-05-30T09:20:06.633Z,35.93
2023-05-30T09:22:33.239Z,36.34
2023-05-30T09:25:01.904Z,35.75
2023-05-30T09:27:31.181Z,37.24
2023-05-30T09:29:57.788Z,35.42
2023-05-30T09:32:35.554Z,35.89
2023-05-30T09:35:11.261Z,35.12
2023-05-30T09:37:44.732Z,36.23
2023-05-30T09:40:18.413Z,36.68
2023-05-30T09:42:52.093Z,34.46
2023-05-30T09:45:23.927Z,36.67
2023-05-30T09:47:52.502Z,33.78
2023-05-30T09:50:21.340Z,35.32
2023-05-30T09:52:53.298Z,34.82
2023-05-30T09:55:20.866Z,33.51
2023-05-30T09:57:49.532Z,34.02
2023-05-30T10:00:31.361Z,32.82
2023-05-30T10:02:58.960Z,33.68
2023-05-30T10:05:28.098Z,35.46
2023-05-30T10:07:59.045Z,34.99
2023-05-30T10:10:26.432Z,33.83
2023-05-30T10:12:55.048Z,33.31
2023-05-30T10:15:24.590Z,34.49
2023-05-30T10:17:57.422Z,33.18
2023-05-30T10:20:27.432Z,34.55
2023-05-30T10:22:54.194Z,32.93
2023-05-30T10:25:22.403Z,33.92
2023-05-30T10:27:53.214Z,33.34
2023-05-30T10:30:27.087Z,32.23
2023-05-30T10:33:04.003Z,33.24
2023-05-30T10:35:33.118Z,32.90
2023-05-30T10:38:05.542Z,33.45
2023-05-30T10:40:37.926Z,32.63
2023-05-30T10:43:26.509Z,31.82
2023-05-30T10:46:19.354Z,33.15
2023-05-30T10:48:49.013Z,30.91
2023-05-30T10:51:15.753Z,31.82
2023-05-30T10:53:47.068Z,32.69
2023-05-30T10:56:39.285Z,31.52
2023-05-30T10:59:18.152Z,30.97
2023-05-30T11:02:00.011Z,30.92
2023-05-30T11:04:40.624Z,30.48
2023-05-30T11:07:12.578Z,29.68
2023-05-30T11:09:43.336Z,31.23
2023-05-30T11:12:22.960Z,31.91
2023-05-30T11:14:57.029Z,28.94
2023-05-30T11:17:34.322Z,29.96
2023-05-30T11:20:09.790Z,29.38
2023-05-30T11:22:38.919Z,29.15
2023-05-30T11:25:26.790Z,31.99
2023-05-30T11:28:05.867Z,29.20
2023-05-30T11:30:34.336Z,30.75
2023-05-30T11:33:01.217Z,29.15
2023-05-30T11:35:28.938Z,32.00
2023-05-30T11:37:57.902Z,30.29
2023-05-30T11:40:25.324Z,29.94
2023-05-30T11:42:53.143Z,29.78
2023-05-30T11:45:27.317Z,29.61
2023-05-30T11:47:54.019Z,30.23
2023-05-30T11:50:21.590Z,31.39
2023-05-30T11:52:48.289Z,30.75
2023-05-30T11:55:15.193Z,28.01
2023-05-30T11:57:41.969Z,28.81
2023-05-30T12:00:12.961Z,29.78
2023-05-30T12:02:40.297Z,29.51
2023-05-30T12:05:08.159Z,28.95
2023-05-30T12:07:34.781Z,27.79
2023-05-30T12:10:01.666Z,28.02
2023-05-30T12:12:28.808Z,27.32
2023-05-30T12:14:56.279Z,27.21
2023-05-30T12:17:25.816Z,27.15
2023-05-30T12:19:57.366Z,28.60
2023-05-30T12:22:25.539Z,27.71
2023-05-30T12:24:53.333Z,28.00
2023-05-30T12:27:26.310Z,28.60
2023-05-30T12:29:53.712Z,27.54
2023-05-30T12:32:30.610Z,28.44
2023-05-30T12:34:59.180Z,27.39
2023-05-30T12:37:26.420Z,27.44
2023-05-30T12:40:01.050Z,28.33
2023-05-30T12:42:29.035Z,28.45
2023-05-30T12:45:00.480Z,26.54
2023-05-30T12:47:28.654Z,28.59
2023-05-30T12:49:56.692Z,26.80
2023-05-30T12:52:28.252Z,27.53
2023-05-30T12:54:55.154Z,26.37
2023-05-30T12:57:26.487Z,26.41
2023-05-30T12:59:54.390Z,25.23
2023-05-30T13:02:25.433Z,24.93
2023-05-30T13:04:53.345Z,25.38
2023-05-30T13:07:21.191Z,26.43
2023-05-30T13:09:48.407Z,24.27
2023-05-30T13:12:17.040Z,25.34
2023-05-30T13:14:45.750Z,25.02
2023-05-30T13:17:13.116Z,24.43
2023-05-30T13:19:40.004Z,24.63
2023-05-30T13:22:09.176Z,23.89
2023-05-30T13:24:36.197Z,25.96
2023-05-30T13:27:02.930Z,26.48
2023-05-30T13:29:29.555Z,24.94
2023-05-30T13:31:56.467Z,26.35
2023-05-30T13:34:23.161Z,24.23
2023-05-30T13:36:49.819Z,24.83
2023-05-30T13:39:16.540Z,25.43
2023-05-30T13:41:43.308Z,24.31
2023-05-30T13:44:09.962Z,23.62
2023-05-30T13:49:08.804Z,23.53
2023-05-30T13:51:35.788Z,25.69
2023-05-30T13:54:05.450Z,24.25
2023-05-30T13:56:32.629Z,23.54
2023-05-30T13:59:00.297Z,23.78
2023-05-30T14:01:30.960Z,24.05
2023-05-30T14:03:58.157Z,23.53
2023-05-30T14:06:25.277Z,24.92
2023-05-30T14:08:52.203Z,24.84
2023-05-30T14:11:18.853Z,25.33
2023-05-30T14:13:45.577Z,23.90
2023-05-30T14:16:14.757Z,25.17
2023-05-30T14:18:46.678Z,23.31
2023-05-30T14:21:14.151Z,24.77
2023-05-30T14:23:40.949Z,23.50
2023-05-30T14:26:07.609Z,23.19
2023-05-30T14:28:34.623Z,24.69
2023-05-30T14:31:01.507Z,23.87
2023-05-30T14:33:28.364Z,23.68
2023-05-30T14:35:54.967Z,23.88
2023-05-30T14:38:21.722Z,24.28
2023-05-30T14:40:48.278Z,24.73
2023-05-30T14:43:14.878Z,25.40
2023-05-30T14:45:41.667Z,24.64
2023-05-30T14:48:09.772Z,24.50
2023-05-30T14:50:36.696Z,25.15
2023-05-30T14:53:03.649Z,24.34
2023-05-30T14:55:30.843Z,24.43
2023-05-30T14:57:58.309Z,25.42
2023-05-30T15:00:25.501Z,25.57
2023-05-30T15:02:52.651Z,26.09
2023-05-30T15:05:19.933Z,25.17
2023-05-30T15:07:47.523Z,25.25
2023-05-30T15:10:14.204Z,25.36
2023-05-30T15:12:43.010Z,27.44
2023-05-30T15:15:10.025Z,26.02
2023-05-30T15:17:37.751Z,26.14
2023-05-30T15:20:05.571Z,26.32
2023-05-30T15:22:32.214Z,25.66
2023-05-30T15:25:01.348Z,25.60
2023-05-30T15:27:28.759Z,25.27
2023-05-30T15:29:55.675Z,26.66
2023-05-30T15:32:22.339Z,26.22
2023-05-30T15:34:48.948Z,25.97
2023-05-30T15:37:15.530Z,26.60
2023-05-30T15:39:42.188Z,26.13
2023-05-30T15:42:09.019Z,26.53
2023-05-30T15:44:37.558Z,27.45
2023-05-30T15:47:04.410Z,26.43
2023-05-30T15:49:31.635Z,26.52
2023-05-30T15:51:58.408Z,27.43
2023-05-30T15:54:26.231Z,27.13
2023-05-30T15:56:52.990Z,27.45
2023-05-30T15:59:19.680Z,27.98
2023-05-30T16:01:46.291Z,26.88
2023-05-30T16:04:13.369Z,26.98
2023-05-30T16:06:40.045Z,28.04
2023-05-30T16:09:06.738Z,27.70
2023-05-30T16:11:33.557Z,27.30
2023-05-30T16:14:00.389Z,27.59
2023-05-30T16:16:28.043Z,27.56
2023-05-30T16:18:55.526Z,27.97
2023-05-30T16:21:22.080Z,28.13
2023-05-30T16:23:48.948Z,27.66
2023-05-30T16:26:15.636Z,27.51
2023-05-30T16:28:42.309Z,27.91
2023-05-30T16:31:09.331Z,27.64
2023-05-30T16:33:37.204Z,27.34
2023-05-30T16:36:08.493Z,27.55
2023-05-30T16:38:40.554Z,27.43
2023-05-30T16:41:13.716Z,27.50
2023-05-30T16:43:42.416Z,28.36
2023-05-30T16:46:10.639Z,28.13
2023-05-30T16:48:37.637Z,27.64
2023-05-30T16:51:04.654Z,27.45
2023-05-30T16:53:31.332Z,27.24
2023-05-30T16:55:58.107Z,27.68
2023-05-30T16:58:24.784Z,27.71
2023-05-30T17:00:51.857Z,28.11
2023-05-30T17:03:18.597Z,27.59
2023-05-30T17:06:04.298Z,27.31
2023-05-30T17:08:51.218Z,27.22
2023-05-30T17:11:38.097Z,26.90
2023-05-30T17:14:24.937Z,26.94
2023-05-30T17:17:11.775Z,26.54
2023-05-30T17:19:58.645Z,26.28
2023-05-30T17:22:45.775Z,26.24
2023-05-30T17:25:35.005Z,26.69
2023-05-30T17:28:25.435Z,26.54
2023-05-30T17:31:12.362Z,26.33
2023-05-30T17:33:59.193Z,26.43
2023-05-30T17:36:46.224Z,26.65
2023-05-30T17:39:33.116Z,26.62
2023-05-30T17:42:20.048Z,26.24
2023-05-30T17:45:07.724Z,27.43
2023-05-30T17:47:55.714Z,27.20
2023-05-30T17:50:42.608Z,26.75
2023-05-30T17:53:29.624Z,26.52
2023-05-30T17:56:17.887Z,26.97
2023-05-30T17:59:07.037Z,26.93
2023-05-30T18:01:54.027Z,27.36
2023-05-30T18:04:41.615Z,27.21
2023-05-30T18:07:28.550Z,27.32
2023-05-30T18:10:15.559Z,27.73
2023-05-30T18:13:02.458Z,27.52
2023-05-30T18:15:49.401Z,27.81
2023-05-30T18:18:36.309Z,27.77
2023-05-30T18:21:23.155Z,27.45
2023-05-30T18:24:10.288Z,27.94
2023-05-30T18:26:57.141Z,28.37
2023-05-30T18:29:44.369Z,28.22
2023-05-30T18:32:31.253Z,27.94
2023-05-30T18:35:18.157Z,28.08
2023-05-30T18:38:05.004Z,28.18
2023-05-30T18:40:51.861Z,28.41
2023-05-30T18:43:38.716Z,28.71
2023-05-30T18:46:26.093Z,28.85
2023-05-30T18:49:13.057Z,28.12
2023-05-30T18:51:59.971Z,28.88
2023-05-30T18:54:46.790Z,30.32
2023-05-30T18:57:33.715Z,29.97
2023-05-30T19:00:20.750Z,29.92
2023-05-30T19:03:07.706Z,30.75
2023-05-30T19:05:54.646Z,30.28
2023-05-30T19:08:41.557Z,30.02
2023-05-30T19:11:28.461Z,29.68
2023-05-30T19:14:15.586Z,31.22
2023-05-30T19:17:03.094Z,30.83
2023-05-30T19:19:52.426Z,32.15
2023-05-30T19:22:39.341Z,30.55
2023-05-30T19:25:26.444Z,31.03
2023-05-30T19:28:14.419Z,30.58
2023-05-30T19:31:02.412Z,30.99
2023-05-30T19:33:49.332Z,30.97
2023-05-30T19:36:36.270Z,30.79
2023-05-30T19:39:23.113Z,31.95
2023-05-30T19:42:10.064Z,31.22
2023-05-30T19:44:56.878Z,31.49
2023-05-30T19:47:43.916Z,31.90
2023-05-30T19:50:30.798Z,31.79
2023-05-30T19:53:17.968Z,31.97
2023-05-30T19:56:05.773Z,31.79
2023-05-30T19:58:52.726Z,31.95
2023-05-30T20:01:39.608Z,32.16
2023-05-30T20:04:26.861Z,32.16
2023-05-30T20:07:13.766Z,31.70
2023-05-30T20:10:00.833Z,31.74
2023-05-30T20:12:47.795Z,32.37
